Accueil
METAR-TAF:

METAR-TAF

Aéroports :

Saglek Bay, Terre-Neuve-et-Labrador, Canada

latitude: 58-20N, longitude: 062-35W, altitude: 483 m

Observation

Le bulletin a été fait il y a 46 minutes, à 11:00 UTC
Vent 4 kt de ouest
Température 0°C
Humidité 86%
Pression 1011 hPa
Nuages fragmentés à une hauteur de 2900 ft
Ciel couvert à une hauteur de 5500 ft

METAR: CWZZ 011100Z AUTO 26004KT ////SM BKN029 OVC055 00/M02 A2985

Heure: 08:46 (11:46 UTC)


TAF: absent

Observations et prévisions météorologiques de plus de 4000 aéroports (messages METAR et TAF).

Les stations disponibles sont représentées par des disques jaunes et rouges sur la carte.

Passer la souris dessus pour voir le nom de la station.

Cliquer dessus pour voir les observations et prévisions météorologiques.

Pour changer de carte: cliquez sur les boutons verts avec une croix noire pour zoomer, sur le bouton vert avec un tiret pour effectuer un zoom arrière, ou sur les flèches vertes pour les cartes adjacentes.


METAR-TAF: